sensor_id;sensor_type;location;lat;lon;timestamp;temperature;humidity
10524;DHT22;5310;48.638;9.060;2022-08-21T00:02:24;12.50;99.90
10524;DHT22;5310;48.638;9.060;2022-08-21T00:04:51;12.40;99.90
10524;DHT22;5310;48.638;9.060;2022-08-21T00:07:20;12.40;99.90
10524;DHT22;5310;48.638;9.060;2022-08-21T00:09:46;12.30;99.90
10524;DHT22;5310;48.638;9.060;2022-08-21T00:14:38;12.30;99.90
10524;DHT22;5310;48.638;9.060;2022-08-21T00:19:29;12.20;99.90
10524;DHT22;5310;48.638;9.060;2022-08-21T00:21:55;12.10;99.90
10524;DHT22;5310;48.638;9.060;2022-08-21T00:24:21;12.10;99.90
10524;DHT22;5310;48.638;9.060;2022-08-21T00:26:47;12.10;99.90
10524;DHT22;5310;48.638;9.060;2022-08-21T00:31:39;11.90;99.90
10524;DHT22;5310;48.638;9.060;2022-08-21T00:34:04;11.90;99.90
10524;DHT22;5310;48.638;9.060;2022-08-21T00:36:30;11.90;99.90
10524;DHT22;5310;48.638;9.060;2022-08-21T00:41:21;11.80;99.90
10524;DHT22;5310;48.638;9.060;2022-08-21T00:43:48;11.80;99.90
10524;DHT22;5310;48.638;9.060;2022-08-21T00:46:15;11.70;99.90
10524;DHT22;5310;48.638;9.060;2022-08-21T00:48:40;11.60;99.90
10524;DHT22;5310;48.638;9.060;2022-08-21T00:53:32;11.60;99.90
10524;DHT22;5310;48.638;9.060;2022-08-21T00:58:23;11.60;99.90
10524;DHT22;5310;48.638;9.060;2022-08-21T01:03:20;11.60;99.90
10524;DHT22;5310;48.638;9.060;2022-08-21T01:05:46;11.60;99.90
10524;DHT22;5310;48.638;9.060;2022-08-21T01:08:11;11.60;99.90
10524;DHT22;5310;48.638;9.060;2022-08-21T01:10:38;11.50;99.90
10524;DHT22;5310;48.638;9.060;2022-08-21T01:17:57;11.50;99.90
10524;DHT22;5310;48.638;9.060;2022-08-21T01:20:24;11.50;99.90
10524;DHT22;5310;48.638;9.060;2022-08-21T01:22:49;11.50;99.90
10524;DHT22;5310;48.638;9.060;2022-08-21T01:25:15;11.40;99.90
10524;DHT22;5310;48.638;9.060;2022-08-21T01:27:41;11.40;99.90
10524;DHT22;5310;48.638;9.060;2022-08-21T01:30:09;11.30;99.90
10524;DHT22;5310;48.638;9.060;2022-08-21T01:32:34;11.20;99.90
10524;DHT22;5310;48.638;9.060;2022-08-21T01:35:00;11.20;99.90
10524;DHT22;5310;48.638;9.060;2022-08-21T01:37:26;11.10;99.90
10524;DHT22;5310;48.638;9.060;2022-08-21T01:39:51;11.20;99.90
10524;DHT22;5310;48.638;9.060;2022-08-21T01:42:17;11.10;99.90
10524;DHT22;5310;48.638;9.060;2022-08-21T01:44:42;11.10;99.90
10524;DHT22;5310;48.638;9.060;2022-08-21T01:47:10;11.00;99.90
10524;DHT22;5310;48.638;9.060;2022-08-21T01:52:02;11.00;99.90
10524;DHT22;5310;48.638;9.060;2022-08-21T01:54:28;11.00;99.90
10524;DHT22;5310;48.638;9.060;2022-08-21T01:56:54;11.00;99.90
10524;DHT22;5310;48.638;9.060;2022-08-21T01:59:20;11.10;99.90
10524;DHT22;5310;48.638;9.060;2022-08-21T02:01:46;11.00;99.90
10524;DHT22;5310;48.638;9.060;2022-08-21T02:04:12;11.00;99.90
10524;DHT22;5310;48.638;9.060;2022-08-21T02:06:38;10.90;99.90
10524;DHT22;5310;48.638;9.060;2022-08-21T02:09:04;10.80;99.90
10524;DHT22;5310;48.638;9.060;2022-08-21T02:11:30;10.90;99.90
10524;DHT22;5310;48.638;9.060;2022-08-21T02:13:55;10.90;99.90
10524;DHT22;5310;48.638;9.060;2022-08-21T02:16:21;10.90;99.90
10524;DHT22;5310;48.638;9.060;2022-08-21T02:18:46;10.80;99.90
10524;DHT22;5310;48.638;9.060;2022-08-21T02:23:38;10.80;99.90
10524;DHT22;5310;48.638;9.060;2022-08-21T02:26:04;10.70;99.90
10524;DHT22;5310;48.638;9.060;2022-08-21T02:28:32;10.70;99.90
10524;DHT22;5310;48.638;9.060;2022-08-21T02:30:57;10.60;99.90
10524;DHT22;5310;48.638;9.060;2022-08-21T02:33:23;10.60;99.90
10524;DHT22;5310;48.638;9.060;2022-08-21T02:35:49;10.50;99.90
10524;DHT22;5310;48.638;9.060;2022-08-21T02:38:25;10.60;99.90
10524;DHT22;5310;48.638;9.060;2022-08-21T02:40:51;10.50;99.90
10524;DHT22;5310;48.638;9.060;2022-08-21T02:43:18;10.50;99.90
10524;DHT22;5310;48.638;9.060;2022-08-21T02:45:44;10.40;99.90
10524;DHT22;5310;48.638;9.060;2022-08-21T02:48:11;10.40;99.90
10524;DHT22;5310;48.638;9.060;2022-08-21T02:50:41;10.40;99.90
10524;DHT22;5310;48.638;9.060;2022-08-21T02:55:33;10.30;99.90
10524;DHT22;5310;48.638;9.060;2022-08-21T02:58:00;10.30;99.90
10524;DHT22;5310;48.638;9.060;2022-08-21T03:00:26;10.30;99.90
10524;DHT22;5310;48.638;9.060;2022-08-21T03:02:52;10.20;99.90
10524;DHT22;5310;48.638;9.060;2022-08-21T03:05:18;10.20;99.90
10524;DHT22;5310;48.638;9.060;2022-08-21T03:07:45;10.20;99.90
10524;DHT22;5310;48.638;9.060;2022-08-21T03:10:11;10.10;99.90
10524;DHT22;5310;48.638;9.060;2022-08-21T03:15:06;10.00;99.90
10524;DHT22;5310;48.638;9.060;2022-08-21T03:17:32;9.90;99.90
10524;DHT22;5310;48.638;9.060;2022-08-21T03:19:58;9.90;99.90
10524;DHT22;5310;48.638;9.060;2022-08-21T03:22:24;9.80;99.90
10524;DHT22;5310;48.638;9.060;2022-08-21T03:24:50;9.80;99.90
10524;DHT22;5310;48.638;9.060;2022-08-21T03:27:16;9.80;99.90
10524;DHT22;5310;48.638;9.060;2022-08-21T03:29:41;9.90;99.90
10524;DHT22;5310;48.638;9.060;2022-08-21T03:32:07;9.90;99.90
10524;DHT22;5310;48.638;9.060;2022-08-21T03:34:35;9.90;99.90
10524;DHT22;5310;48.638;9.060;2022-08-21T03:37:00;9.90;99.90
10524;DHT22;5310;48.638;9.060;2022-08-21T03:39:26;9.80;99.90
10524;DHT22;5310;48.638;9.060;2022-08-21T03:41:51;9.80;99.90
10524;DHT22;5310;48.638;9.060;2022-08-21T03:44:18;9.80;99.90
10524;DHT22;5310;48.638;9.060;2022-08-21T03:46:43;9.80;99.90
10524;DHT22;5310;48.638;9.060;2022-08-21T03:49:09;9.80;99.90
10524;DHT22;5310;48.638;9.060;2022-08-21T03:51:34;9.80;99.90
10524;DHT22;5310;48.638;9.060;2022-08-21T03:54:00;9.70;99.90
10524;DHT22;5310;48.638;9.060;2022-08-21T03:56:26;9.60;99.90
10524;DHT22;5310;48.638;9.060;2022-08-21T03:58:51;9.60;99.90
10524;DHT22;5310;48.638;9.060;2022-08-21T04:01:17;9.60;99.90
10524;DHT22;5310;48.638;9.060;2022-08-21T04:06:08;9.60;99.90
10524;DHT22;5310;48.638;9.060;2022-08-21T04:08:35;9.60;99.90
10524;DHT22;5310;48.638;9.060;2022-08-21T04:11:00;9.60;99.90
10524;DHT22;5310;48.638;9.060;2022-08-21T04:13:26;9.60;99.90
10524;DHT22;5310;48.638;9.060;2022-08-21T04:18:19;9.40;99.90
10524;DHT22;5310;48.638;9.060;2022-08-21T04:30:30;9.30;99.90
10524;DHT22;5310;48.638;9.060;2022-08-21T04:32:57;9.30;99.90
10524;DHT22;5310;48.638;9.060;2022-08-21T04:42:48;9.30;99.90
10524;DHT22;5310;48.638;9.060;2022-08-21T04:47:45;9.40;99.90
10524;DHT22;5310;48.638;9.060;2022-08-21T04:52:36;9.40;99.90
10524;DHT22;5310;48.638;9.060;2022-08-21T04:55:03;9.40;99.90
10524;DHT22;5310;48.638;9.060;2022-08-21T04:59:54;9.50;99.90
10524;DHT22;5310;48.638;9.060;2022-08-21T05:02:20;9.50;99.90
10524;DHT22;5310;48.638;9.060;2022-08-21T05:07:19;9.60;99.90
10524;DHT22;5310;48.638;9.060;2022-08-21T05:09:46;9.70;99.90
10524;DHT22;5310;48.638;9.060;2022-08-21T06:44:56;16.00;99.90
10524;DHT22;5310;48.638;9.060;2022-08-21T06:52:13;17.00;99.90
10524;DHT22;5310;48.638;9.060;2022-08-21T06:54:39;17.30;99.50
10524;DHT22;5310;48.638;9.060;2022-08-21T06:59:31;17.50;97.60
10524;DHT22;5310;48.638;9.060;2022-08-21T07:01:57;17.40;98.90
10524;DHT22;5310;48.638;9.060;2022-08-21T07:21:25;19.30;89.70
10524;DHT22;5310;48.638;9.060;2022-08-21T07:23:50;19.30;88.20
10524;DHT22;5310;48.638;9.060;2022-08-21T07:26:17;19.00;88.30
10524;DHT22;5310;48.638;9.060;2022-08-21T07:31:10;19.30;87.50
10524;DHT22;5310;48.638;9.060;2022-08-21T07:33:39;19.70;87.20
10524;DHT22;5310;48.638;9.060;2022-08-21T07:36:06;19.80;87.00
10524;DHT22;5310;48.638;9.060;2022-08-21T07:45:51;20.20;86.40
10524;DHT22;5310;48.638;9.060;2022-08-21T07:55:35;20.60;84.50
10524;DHT22;5310;48.638;9.060;2022-08-21T08:00:28;21.70;80.40
10524;DHT22;5310;48.638;9.060;2022-08-21T08:02:54;22.30;78.90
10524;DHT22;5310;48.638;9.060;2022-08-21T08:05:23;22.20;77.60
10524;DHT22;5310;48.638;9.060;2022-08-21T08:07:49;21.80;78.60
10524;DHT22;5310;48.638;9.060;2022-08-21T08:10:15;22.00;78.00
10524;DHT22;5310;48.638;9.060;2022-08-21T08:12:42;22.50;77.00
10524;DHT22;5310;48.638;9.060;2022-08-21T08:15:09;22.40;75.50
10524;DHT22;5310;48.638;9.060;2022-08-21T08:20:03;22.80;74.60
10524;DHT22;5310;48.638;9.060;2022-08-21T08:22:28;22.70;75.90
10524;DHT22;5310;48.638;9.060;2022-08-21T08:24:54;22.40;75.90
10524;DHT22;5310;48.638;9.060;2022-08-21T08:29:46;21.70;76.50
10524;DHT22;5310;48.638;9.060;2022-08-21T08:32:11;22.00;77.10
10524;DHT22;5310;48.638;9.060;2022-08-21T08:34:37;22.10;75.60
10524;DHT22;5310;48.638;9.060;2022-08-21T08:37:04;22.50;73.80
10524;DHT22;5310;48.638;9.060;2022-08-21T08:39:30;22.30;73.80
10524;DHT22;5310;48.638;9.060;2022-08-21T08:46:47;22.70;70.70
10524;DHT22;5310;48.638;9.060;2022-08-21T08:49:19;22.70;69.90
10524;DHT22;5310;48.638;9.060;2022-08-21T08:54:13;23.20;67.80
10524;DHT22;5310;48.638;9.060;2022-08-21T08:56:40;23.30;68.60
10524;DHT22;5310;48.638;9.060;2022-08-21T09:01:32;23.80;67.40
10524;DHT22;5310;48.638;9.060;2022-08-21T09:03:57;23.70;68.00
10524;DHT22;5310;48.638;9.060;2022-08-21T09:08:51;24.00;67.70
10524;DHT22;5310;48.638;9.060;2022-08-21T09:26:39;24.10;69.20
10524;DHT22;5310;48.638;9.060;2022-08-21T09:29:09;24.10;69.80
10524;DHT22;5310;48.638;9.060;2022-08-21T09:31:36;24.20;68.90
10524;DHT22;5310;48.638;9.060;2022-08-21T09:34:06;24.00;66.50
10524;DHT22;5310;48.638;9.060;2022-08-21T09:38:57;23.80;66.80
10524;DHT22;5310;48.638;9.060;2022-08-21T09:41:27;24.30;66.20
10524;DHT22;5310;48.638;9.060;2022-08-21T09:43:53;24.40;65.10
10524;DHT22;5310;48.638;9.060;2022-08-21T09:46:20;24.60;65.90
10524;DHT22;5310;48.638;9.060;2022-08-21T09:48:47;24.30;67.10
10524;DHT22;5310;48.638;9.060;2022-08-21T09:56:16;25.00;65.00
10524;DHT22;5310;48.638;9.060;2022-08-21T09:59:01;25.20;63.20
10524;DHT22;5310;48.638;9.060;2022-08-21T10:04:07;25.00;63.90
10524;DHT22;5310;48.638;9.060;2022-08-21T10:06:33;25.10;63.50
10524;DHT22;5310;48.638;9.060;2022-08-21T10:09:08;25.60;63.80
10524;DHT22;5310;48.638;9.060;2022-08-21T10:11:34;25.40;62.30
10524;DHT22;5310;48.638;9.060;2022-08-21T10:24:14;25.50;61.50
10524;DHT22;5310;48.638;9.060;2022-08-21T10:26:52;26.00;60.60
10524;DHT22;5310;48.638;9.060;2022-08-21T10:34:18;27.30;58.00
10524;DHT22;5310;48.638;9.060;2022-08-21T10:39:18;27.40;56.10
10524;DHT22;5310;48.638;9.060;2022-08-21T10:44:47;27.60;55.80
10524;DHT22;5310;48.638;9.060;2022-08-21T11:02:31;25.90;59.50
10524;DHT22;5310;48.638;9.060;2022-08-21T11:09:49;27.50;55.20
10524;DHT22;5310;48.638;9.060;2022-08-21T11:12:19;27.20;56.30
10524;DHT22;5310;48.638;9.060;2022-08-21T11:14:51;27.00;56.40
10524;DHT22;5310;48.638;9.060;2022-08-21T11:19:50;27.50;56.40
10524;DHT22;5310;48.638;9.060;2022-08-21T11:22:23;27.50;56.00
10524;DHT22;5310;48.638;9.060;2022-08-21T11:27:28;28.40;53.40
10524;DHT22;5310;48.638;9.060;2022-08-21T11:29:58;27.90;54.90
10524;DHT22;5310;48.638;9.060;2022-08-21T11:32:35;28.20;54.00
10524;DHT22;5310;48.638;9.060;2022-08-21T11:38:19;28.60;53.90
10524;DHT22;5310;48.638;9.060;2022-08-21T11:45:44;29.30;51.70
10524;DHT22;5310;48.638;9.060;2022-08-21T11:50:42;28.80;52.10
10524;DHT22;5310;48.638;9.060;2022-08-21T11:53:11;27.70;54.00
10524;DHT22;5310;48.638;9.060;2022-08-21T11:55:41;28.60;53.00
10524;DHT22;5310;48.638;9.060;2022-08-21T11:58:23;28.40;52.70
10524;DHT22;5310;48.638;9.060;2022-08-21T12:05:42;28.60;51.50
10524;DHT22;5310;48.638;9.060;2022-08-21T12:08:12;27.10;54.60
10524;DHT22;5310;48.638;9.060;2022-08-21T12:10:39;27.30;55.10
10524;DHT22;5310;48.638;9.060;2022-08-21T12:13:07;27.20;55.80
10524;DHT22;5310;48.638;9.060;2022-08-21T12:15:33;27.60;54.80
10524;DHT22;5310;48.638;9.060;2022-08-21T12:28:07;28.30;52.70
10524;DHT22;5310;48.638;9.060;2022-08-21T12:30:35;28.40;52.50
10524;DHT22;5310;48.638;9.060;2022-08-21T12:33:06;29.30;51.40
10524;DHT22;5310;48.638;9.060;2022-08-21T12:35:42;28.90;50.60
10524;DHT22;5310;48.638;9.060;2022-08-21T12:40:41;28.70;51.70
10524;DHT22;5310;48.638;9.060;2022-08-21T12:43:12;29.50;50.50
10524;DHT22;5310;48.638;9.060;2022-08-21T12:45:42;29.30;50.00
10524;DHT22;5310;48.638;9.060;2022-08-21T12:50:37;28.90;51.40
10524;DHT22;5310;48.638;9.060;2022-08-21T12:58:19;28.10;53.00
10524;DHT22;5310;48.638;9.060;2022-08-21T13:03:10;26.90;53.70
10524;DHT22;5310;48.638;9.060;2022-08-21T13:05:39;27.00;54.30
10524;DHT22;5310;48.638;9.060;2022-08-21T13:08:05;27.00;54.60
10524;DHT22;5310;48.638;9.060;2022-08-21T13:10:31;26.90;55.40
10524;DHT22;5310;48.638;9.060;2022-08-21T13:15:29;26.90;56.60
10524;DHT22;5310;48.638;9.060;2022-08-21T13:17:55;27.40;56.00
10524;DHT22;5310;48.638;9.060;2022-08-21T13:22:52;27.00;56.40
10524;DHT22;5310;48.638;9.060;2022-08-21T13:25:19;26.80;55.50
10524;DHT22;5310;48.638;9.060;2022-08-21T13:27:56;26.50;56.10
10524;DHT22;5310;48.638;9.060;2022-08-21T13:32:48;26.40;57.30
10524;DHT22;5310;48.638;9.060;2022-08-21T13:35:17;26.40;56.40
10524;DHT22;5310;48.638;9.060;2022-08-21T13:37:43;26.40;56.60
10524;DHT22;5310;48.638;9.060;2022-08-21T13:40:10;27.00;55.80
10524;DHT22;5310;48.638;9.060;2022-08-21T13:42:39;27.10;56.00
10524;DHT22;5310;48.638;9.060;2022-08-21T13:45:10;27.30;56.00
10524;DHT22;5310;48.638;9.060;2022-08-21T13:47:36;26.90;55.10
10524;DHT22;5310;48.638;9.060;2022-08-21T13:52:28;26.90;56.10
10524;DHT22;5310;48.638;9.060;2022-08-21T13:54:55;26.60;56.00
10524;DHT22;5310;48.638;9.060;2022-08-21T13:57:39;26.70;55.10
10524;DHT22;5310;48.638;9.060;2022-08-21T14:02:40;27.20;54.20
10524;DHT22;5310;48.638;9.060;2022-08-21T14:05:07;27.60;53.10
10524;DHT22;5310;48.638;9.060;2022-08-21T14:12:41;27.70;53.70
10524;DHT22;5310;48.638;9.060;2022-08-21T14:15:08;27.70;53.10
10524;DHT22;5310;48.638;9.060;2022-08-21T14:17:36;27.70;52.80
10524;DHT22;5310;48.638;9.060;2022-08-21T14:20:03;27.40;53.10
10524;DHT22;5310;48.638;9.060;2022-08-21T14:22:30;27.30;53.90
10524;DHT22;5310;48.638;9.060;2022-08-21T14:27:22;26.60;56.90
10524;DHT22;5310;48.638;9.060;2022-08-21T14:29:48;26.20;57.70
10524;DHT22;5310;48.638;9.060;2022-08-21T14:32:14;26.20;58.30
10524;DHT22;5310;48.638;9.060;2022-08-21T14:34:40;26.30;58.30
10524;DHT22;5310;48.638;9.060;2022-08-21T14:37:06;26.60;56.60
10524;DHT22;5310;48.638;9.060;2022-08-21T14:39:31;26.90;56.40
10524;DHT22;5310;48.638;9.060;2022-08-21T14:41:57;27.00;56.00
10524;DHT22;5310;48.638;9.060;2022-08-21T14:44:23;27.10;54.80
10524;DHT22;5310;48.638;9.060;2022-08-21T14:49:14;27.00;54.50
10524;DHT22;5310;48.638;9.060;2022-08-21T14:51:40;26.90;55.20
10524;DHT22;5310;48.638;9.060;2022-08-21T14:54:06;26.90;54.60
10524;DHT22;5310;48.638;9.060;2022-08-21T14:56:32;27.00;54.30
10524;DHT22;5310;48.638;9.060;2022-08-21T14:58:59;27.10;54.50
10524;DHT22;5310;48.638;9.060;2022-08-21T15:01:25;27.00;54.50
10524;DHT22;5310;48.638;9.060;2022-08-21T15:03:50;27.00;55.50
10524;DHT22;5310;48.638;9.060;2022-08-21T15:06:16;26.90;55.10
10524;DHT22;5310;48.638;9.060;2022-08-21T15:08:43;26.90;55.20
10524;DHT22;5310;48.638;9.060;2022-08-21T15:13:35;26.70;55.20
10524;DHT22;5310;48.638;9.060;2022-08-21T15:16:01;26.80;55.20
10524;DHT22;5310;48.638;9.060;2022-08-21T15:20:52;26.90;55.50
10524;DHT22;5310;48.638;9.060;2022-08-21T15:23:18;26.90;54.90
10524;DHT22;5310;48.638;9.060;2022-08-21T15:25:45;26.80;54.30
10524;DHT22;5310;48.638;9.060;2022-08-21T15:28:11;26.80;54.80
10524;DHT22;5310;48.638;9.060;2022-08-21T15:30:37;26.60;54.50
10524;DHT22;5310;48.638;9.060;2022-08-21T15:35:28;26.80;54.90
10524;DHT22;5310;48.638;9.060;2022-08-21T15:37:54;26.80;55.20
10524;DHT22;5310;48.638;9.060;2022-08-21T15:42:45;26.70;55.70
10524;DHT22;5310;48.638;9.060;2022-08-21T15:45:11;26.40;55.50
10524;DHT22;5310;48.638;9.060;2022-08-21T15:47:38;26.30;55.20
10524;DHT22;5310;48.638;9.060;2022-08-21T15:50:05;26.00;56.40
10524;DHT22;5310;48.638;9.060;2022-08-21T15:52:31;25.90;57.20
10524;DHT22;5310;48.638;9.060;2022-08-21T15:57:23;25.70;57.20
10524;DHT22;5310;48.638;9.060;2022-08-21T15:59:52;25.90;57.20
10524;DHT22;5310;48.638;9.060;2022-08-21T16:02:20;25.80;56.90
10524;DHT22;5310;48.638;9.060;2022-08-21T16:07:12;25.90;56.60
10524;DHT22;5310;48.638;9.060;2022-08-21T16:14:29;25.90;56.30
10524;DHT22;5310;48.638;9.060;2022-08-21T16:16:55;25.90;55.80
10524;DHT22;5310;48.638;9.060;2022-08-21T16:19:21;26.00;55.80
10524;DHT22;5310;48.638;9.060;2022-08-21T16:24:13;25.80;55.70
10524;DHT22;5310;48.638;9.060;2022-08-21T16:26:38;25.80;56.00
10524;DHT22;5310;48.638;9.060;2022-08-21T16:29:04;25.80;56.70
10524;DHT22;5310;48.638;9.060;2022-08-21T16:31:30;25.80;57.40
10524;DHT22;5310;48.638;9.060;2022-08-21T16:33:56;25.80;57.90
10524;DHT22;5310;48.638;9.060;2022-08-21T16:36:22;25.80;58.30
10524;DHT22;5310;48.638;9.060;2022-08-21T16:38:48;25.80;58.00
10524;DHT22;5310;48.638;9.060;2022-08-21T16:43:40;25.70;57.90
10524;DHT22;5310;48.638;9.060;2022-08-21T16:46:06;25.70;58.20
10524;DHT22;5310;48.638;9.060;2022-08-21T16:48:31;25.60;58.30
10524;DHT22;5310;48.638;9.060;2022-08-21T16:53:23;25.60;58.30
10524;DHT22;5310;48.638;9.060;2022-08-21T16:55:51;25.70;57.70
10524;DHT22;5310;48.638;9.060;2022-08-21T16:58:25;25.50;57.30
10524;DHT22;5310;48.638;9.060;2022-08-21T17:00:51;25.40;57.90
10524;DHT22;5310;48.638;9.060;2022-08-21T17:03:18;25.40;57.90
10524;DHT22;5310;48.638;9.060;2022-08-21T17:05:46;25.40;57.90
10524;DHT22;5310;48.638;9.060;2022-08-21T17:08:11;25.40;58.20
10524;DHT22;5310;48.638;9.060;2022-08-21T17:10:37;25.30;58.20
10524;DHT22;5310;48.638;9.060;2022-08-21T17:13:03;25.20;58.60
10524;DHT22;5310;48.638;9.060;2022-08-21T17:15:33;25.10;58.90
10524;DHT22;5310;48.638;9.060;2022-08-21T17:17:59;25.00;59.20
10524;DHT22;5310;48.638;9.060;2022-08-21T17:20:25;24.90;59.10
10524;DHT22;5310;48.638;9.060;2022-08-21T17:22:50;24.80;59.40
10524;DHT22;5310;48.638;9.060;2022-08-21T17:25:17;24.70;59.80
10524;DHT22;5310;48.638;9.060;2022-08-21T17:30:10;24.50;60.20
10524;DHT22;5310;48.638;9.060;2022-08-21T17:32:36;24.40;60.90
10524;DHT22;5310;48.638;9.060;2022-08-21T17:35:03;24.30;61.50
10524;DHT22;5310;48.638;9.060;2022-08-21T17:37:28;24.20;61.50
10524;DHT22;5310;48.638;9.060;2022-08-21T17:39:54;24.10;62.00
10524;DHT22;5310;48.638;9.060;2022-08-21T17:42:19;23.90;62.60
10524;DHT22;5310;48.638;9.060;2022-08-21T17:44:47;23.80;63.80
10524;DHT22;5310;48.638;9.060;2022-08-21T17:49:38;23.40;65.10
10524;DHT22;5310;48.638;9.060;2022-08-21T17:52:04;23.20;65.70
10524;DHT22;5310;48.638;9.060;2022-08-21T17:54:31;23.10;65.90
10524;DHT22;5310;48.638;9.060;2022-08-21T17:56:57;22.90;66.00
10524;DHT22;5310;48.638;9.060;2022-08-21T17:59:22;22.80;66.20
10524;DHT22;5310;48.638;9.060;2022-08-21T18:06:40;22.40;67.20
10524;DHT22;5310;48.638;9.060;2022-08-21T18:09:06;22.30;68.70
10524;DHT22;5310;48.638;9.060;2022-08-21T18:11:32;22.10;69.20
10524;DHT22;5310;48.638;9.060;2022-08-21T18:13:59;21.90;70.10
10524;DHT22;5310;48.638;9.060;2022-08-21T18:16:26;21.70;71.00
10524;DHT22;5310;48.638;9.060;2022-08-21T18:18:52;21.40;72.80
10524;DHT22;5310;48.638;9.060;2022-08-21T18:21:18;21.30;72.80
10524;DHT22;5310;48.638;9.060;2022-08-21T18:23:43;21.10;73.10
10524;DHT22;5310;48.638;9.060;2022-08-21T18:26:09;21.00;73.20
10524;DHT22;5310;48.638;9.060;2022-08-21T18:28:35;20.80;74.30
10524;DHT22;5310;48.638;9.060;2022-08-21T18:31:01;20.70;74.70
10524;DHT22;5310;48.638;9.060;2022-08-21T18:33:26;20.70;75.50
10524;DHT22;5310;48.638;9.060;2022-08-21T18:38:18;20.40;76.10
10524;DHT22;5310;48.638;9.060;2022-08-21T18:40:47;20.30;76.40
10524;DHT22;5310;48.638;9.060;2022-08-21T18:43:12;20.30;76.50
10524;DHT22;5310;48.638;9.060;2022-08-21T18:45:38;20.10;77.10
10524;DHT22;5310;48.638;9.060;2022-08-21T18:48:05;20.00;77.60
10524;DHT22;5310;48.638;9.060;2022-08-21T18:50:33;19.90;78.30
10524;DHT22;5310;48.638;9.060;2022-08-21T18:52:59;19.60;78.60
10524;DHT22;5310;48.638;9.060;2022-08-21T19:00:17;19.10;81.90
10524;DHT22;5310;48.638;9.060;2022-08-21T19:02:43;19.00;82.40
10524;DHT22;5310;48.638;9.060;2022-08-21T19:05:09;18.80;82.80
10524;DHT22;5310;48.638;9.060;2022-08-21T19:07:35;18.70;83.30
10524;DHT22;5310;48.638;9.060;2022-08-21T19:10:01;18.60;83.40
10524;DHT22;5310;48.638;9.060;2022-08-21T19:12:27;18.50;84.50
10524;DHT22;5310;48.638;9.060;2022-08-21T19:19:44;18.20;85.50
10524;DHT22;5310;48.638;9.060;2022-08-21T19:22:10;18.10;86.00
10524;DHT22;5310;48.638;9.060;2022-08-21T19:24:36;18.10;86.60
10524;DHT22;5310;48.638;9.060;2022-08-21T19:27:02;18.10;86.40
10524;DHT22;5310;48.638;9.060;2022-08-21T19:29:27;18.00;86.30
10524;DHT22;5310;48.638;9.060;2022-08-21T19:31:53;18.00;86.70
10524;DHT22;5310;48.638;9.060;2022-08-21T19:34:20;18.00;86.90
10524;DHT22;5310;48.638;9.060;2022-08-21T19:36:46;17.90;87.50
10524;DHT22;5310;48.638;9.060;2022-08-21T19:41:38;17.40;90.10
10524;DHT22;5310;48.638;9.060;2022-08-21T19:44:06;17.20;90.30
10524;DHT22;5310;48.638;9.060;2022-08-21T19:46:36;17.20;90.20
10524;DHT22;5310;48.638;9.060;2022-08-21T19:49:03;17.10;90.50
10524;DHT22;5310;48.638;9.060;2022-08-21T19:51:29;17.00;91.00
10524;DHT22;5310;48.638;9.060;2022-08-21T19:53:55;17.00;91.00
10524;DHT22;5310;48.638;9.060;2022-08-21T19:58:46;17.00;91.50
10524;DHT22;5310;48.638;9.060;2022-08-21T20:08:29;16.80;92.00
10524;DHT22;5310;48.638;9.060;2022-08-21T20:10:55;16.80;92.00
10524;DHT22;5310;48.638;9.060;2022-08-21T20:15:48;16.60;92.60
10524;DHT22;5310;48.638;9.060;2022-08-21T20:18:14;16.50;93.10
10524;DHT22;5310;48.638;9.060;2022-08-21T20:23:05;16.30;93.50
10524;DHT22;5310;48.638;9.060;2022-08-21T20:25:31;16.20;93.70
10524;DHT22;5310;48.638;9.060;2022-08-21T20:27:57;16.10;93.90
10524;DHT22;5310;48.638;9.060;2022-08-21T20:30:23;16.00;94.40
10524;DHT22;5310;48.638;9.060;2022-08-21T20:32:48;15.90;94.60
10524;DHT22;5310;48.638;9.060;2022-08-21T20:35:14;15.80;95.00
10524;DHT22;5310;48.638;9.060;2022-08-21T20:37:39;15.80;95.20
10524;DHT22;5310;48.638;9.060;2022-08-21T20:40:06;15.70;95.70
10524;DHT22;5310;48.638;9.060;2022-08-21T20:42:34;15.60;95.80
10524;DHT22;5310;48.638;9.060;2022-08-21T20:45:00;15.60;95.70
10524;DHT22;5310;48.638;9.060;2022-08-21T20:47:31;15.50;96.10
10524;DHT22;5310;48.638;9.060;2022-08-21T20:50:01;15.40;96.30
10524;DHT22;5310;48.638;9.060;2022-08-21T20:54:57;15.10;97.30
10524;DHT22;5310;48.638;9.060;2022-08-21T20:57:33;15.00;97.40
10524;DHT22;5310;48.638;9.060;2022-08-21T21:00:03;15.00;97.60
10524;DHT22;5310;48.638;9.060;2022-08-21T21:02:34;14.90;97.80
10524;DHT22;5310;48.638;9.060;2022-08-21T21:08:08;14.80;98.50
10524;DHT22;5310;48.638;9.060;2022-08-21T21:13:14;14.80;98.90
10524;DHT22;5310;48.638;9.060;2022-08-21T21:15:41;14.70;99.20
10524;DHT22;5310;48.638;9.060;2022-08-21T21:18:13;14.60;99.20
10524;DHT22;5310;48.638;9.060;2022-08-21T21:20:44;14.60;99.40
10524;DHT22;5310;48.638;9.060;2022-08-21T21:25:38;14.50;99.50
10524;DHT22;5310;48.638;9.060;2022-08-21T21:28:06;14.60;99.30
10524;DHT22;5310;48.638;9.060;2022-08-21T21:30:36;14.50;99.10
10524;DHT22;5310;48.638;9.060;2022-08-21T21:33:04;14.40;99.00
10524;DHT22;5310;48.638;9.060;2022-08-21T21:38:07;14.30;98.90
10524;DHT22;5310;48.638;9.060;2022-08-21T21:40:47;14.30;99.80
10524;DHT22;5310;48.638;9.060;2022-08-21T21:43:29;14.30;99.90
10524;DHT22;5310;48.638;9.060;2022-08-21T21:51:05;13.90;99.90
10524;DHT22;5310;48.638;9.060;2022-08-21T21:53:48;13.80;99.90
10524;DHT22;5310;48.638;9.060;2022-08-21T22:06:26;13.60;99.90
10524;DHT22;5310;48.638;9.060;2022-08-21T22:19:35;13.40;99.90
10524;DHT22;5310;48.638;9.060;2022-08-21T22:24:22;13.30;99.90
10524;DHT22;5310;48.638;9.060;2022-08-21T22:26:51;13.30;99.90
10524;DHT22;5310;48.638;9.060;2022-08-21T22:29:19;13.30;99.90
10524;DHT22;5310;48.638;9.060;2022-08-21T22:36:37;13.20;99.90
10524;DHT22;5310;48.638;9.060;2022-08-21T22:39:04;13.20;99.90
10524;DHT22;5310;48.638;9.060;2022-08-21T22:41:30;13.20;99.90
10524;DHT22;5310;48.638;9.060;2022-08-21T22:43:58;13.20;99.90
10524;DHT22;5310;48.638;9.060;2022-08-21T22:46:25;13.20;99.90
10524;DHT22;5310;48.638;9.060;2022-08-21T22:48:52;13.10;99.90
10524;DHT22;5310;48.638;9.060;2022-08-21T22:53:44;13.00;99.90
10524;DHT22;5310;48.638;9.060;2022-08-21T22:56:25;12.90;99.90
10524;DHT22;5310;48.638;9.060;2022-08-21T22:58:53;12.90;99.90
10524;DHT22;5310;48.638;9.060;2022-08-21T23:13:49;12.60;99.90
10524;DHT22;5310;48.638;9.060;2022-08-21T23:18:50;12.50;99.90
10524;DHT22;5310;48.638;9.060;2022-08-21T23:21:30;12.40;99.90
10524;DHT22;5310;48.638;9.060;2022-08-21T23:26:35;12.40;99.90
10524;DHT22;5310;48.638;9.060;2022-08-21T23:31:32;12.40;99.90
10524;DHT22;5310;48.638;9.060;2022-08-21T23:46:52;12.10;99.90
10524;DHT22;5310;48.638;9.060;2022-08-21T23:49:34;12.00;99.90
10524;DHT22;5310;48.638;9.060;2022-08-21T23:54:33;11.90;99.90
